createdAt,value
2019-01-10T00:01:29.839Z,98215.19
2019-01-10T00:04:00.049Z,98203.61
2019-01-10T00:06:30.141Z,98212.06
2019-01-10T00:09:00.445Z,98209.79
2019-01-10T00:11:30.737Z,98218.83
2019-01-10T00:14:01.106Z,98214.19
2019-01-10T00:16:31.259Z,98225.56
2019-01-10T00:19:01.436Z,98231.47
2019-01-10T00:21:31.565Z,98231.95
2019-01-10T00:24:01.704Z,98244.49
2019-01-10T00:26:31.905Z,98236.58
2019-01-10T00:29:02.245Z,98247.63
2019-01-10T00:31:32.403Z,98255.73
2019-01-10T00:34:02.775Z,98254.55
2019-01-10T00:36:33.155Z,98249.02
2019-01-10T00:39:06.464Z,98254.34
2019-01-10T00:41:37.177Z,98252.34
2019-01-10T00:44:07.836Z,98248.33
2019-01-10T00:46:38.032Z,98256.77
2019-01-10T00:49:08.248Z,98253.54
2019-01-10T00:51:38.469Z,98256.64
2019-01-10T00:54:08.725Z,98263.94
2019-01-10T00:56:38.820Z,98262.84
2019-01-10T00:59:09.022Z,98266.88
2019-01-10T01:01:39.295Z,98267.87
2019-01-10T01:04:09.638Z,98271.10
2019-01-10T01:06:40.078Z,98274.45
2019-01-10T01:09:10.571Z,98280.41
2019-01-10T01:11:41.016Z,98290.48
2019-01-10T01:14:11.467Z,98294.70
2019-01-10T01:16:41.601Z,98304.19
2019-01-10T01:19:11.841Z,98304.19
2019-01-10T01:21:42.064Z,98306.09
2019-01-10T01:24:14.111Z,98306.98
2019-01-10T01:26:44.370Z,98311.59
2019-01-10T01:29:15.360Z,98303.50
2019-01-10T01:31:45.489Z,98310.09
2019-01-10T01:34:15.708Z,98310.77
2019-01-10T01:36:45.899Z,98311.93
2019-01-10T01:39:16.095Z,98319.33
2019-01-10T01:41:46.406Z,98317.02
2019-01-10T01:44:16.860Z,98316.91
2019-01-10T01:46:46.988Z,98317.48
2019-01-10T01:49:17.249Z,98318.58
2019-01-10T01:51:47.416Z,98332.87
2019-01-10T01:54:17.742Z,98336.93
2019-01-10T01:56:48.256Z,98342.91
2019-01-10T01:59:18.655Z,98334.34
2019-01-10T02:01:49.006Z,98331.03
2019-01-10T02:04:19.263Z,98335.09
2019-01-10T02:06:49.383Z,98344.23
2019-01-10T02:09:19.709Z,98343.92
2019-01-10T02:11:49.953Z,98349.14
2019-01-10T02:14:20.143Z,98347.64
2019-01-10T02:16:50.395Z,98343.69
2019-01-10T02:19:21.089Z,98350.30
2019-01-10T02:21:51.418Z,98349.14
2019-01-10T02:24:22.008Z,98355.66
2019-01-10T02:26:52.191Z,98349.66
2019-01-10T02:29:22.329Z,98357.19
2019-01-10T02:31:52.597Z,98359.03
2019-01-10T02:34:22.737Z,98356.72
2019-01-10T02:36:52.974Z,98351.91
2019-01-10T02:39:23.170Z,98358.87
2019-01-10T02:41:53.269Z,98349.96
2019-01-10T02:44:23.590Z,98349.55
2019-01-10T02:46:53.814Z,98355.31
2019-01-10T02:49:24.051Z,98355.31
2019-01-10T02:51:54.459Z,98350.17
2019-01-10T02:54:24.950Z,98353.72
2019-01-10T02:56:55.080Z,98352.08
2019-01-10T02:59:26.323Z,98358.66
2019-01-10T03:01:56.605Z,98355.97
2019-01-10T03:04:26.924Z,98352.25
2019-01-10T03:06:57.060Z,98352.55
2019-01-10T03:09:27.211Z,98353.67
2019-01-10T03:11:57.469Z,98353.34
2019-01-10T03:14:27.668Z,98347.98
2019-01-10T03:16:57.877Z,98345.59
2019-01-10T03:19:28.206Z,98347.30
2019-01-10T03:21:58.301Z,98352.31
2019-01-10T03:24:28.619Z,98359.48
2019-01-10T03:26:58.863Z,98348.13
2019-01-10T03:29:28.995Z,98346.52
2019-01-10T03:31:59.098Z,98337.20
2019-01-10T03:34:29.237Z,98337.95
2019-01-10T03:36:59.536Z,98337.20
2019-01-10T03:39:29.791Z,98339.45
2019-01-10T03:42:00.117Z,98336.02
2019-01-10T03:44:34.344Z,98339.86
2019-01-10T03:47:02.990Z,98329.63
2019-01-10T03:49:33.307Z,98336.77
2019-01-10T03:52:03.591Z,98343.69
2019-01-10T03:54:33.732Z,98342.36
2019-01-10T03:57:03.976Z,98335.70
2019-01-10T03:59:34.215Z,98341.23
2019-01-10T04:02:04.509Z,98348.97
2019-01-10T04:04:34.725Z,98353.85
2019-01-10T04:07:04.953Z,98344.23
2019-01-10T04:09:35.073Z,98346.55
2019-01-10T04:12:05.419Z,98353.09
2019-01-10T04:14:35.569Z,98348.29
2019-01-10T04:17:05.856Z,98356.85
2019-01-10T04:19:35.990Z,98355.39
2019-01-10T04:22:06.225Z,98353.55
2019-01-10T04:24:37.685Z,98352.45
2019-01-10T04:27:08.303Z,98345.34
2019-01-10T04:29:38.527Z,98355.00
2019-01-10T04:32:08.736Z,98360.33
2019-01-10T04:34:38.990Z,98356.88
2019-01-10T04:37:09.116Z,98365.14
2019-01-10T04:39:39.436Z,98361.55
2019-01-10T04:42:09.638Z,98358.31
2019-01-10T04:44:40.075Z,98360.22
2019-01-10T04:47:10.189Z,98362.20
2019-01-10T04:49:40.649Z,98360.50
2019-01-10T04:52:11.057Z,98361.63
2019-01-10T04:54:41.772Z,98356.00
2019-01-10T04:57:12.213Z,98361.25
2019-01-10T04:59:43.884Z,98362.47
2019-01-10T05:02:18.440Z,98371.22
2019-01-10T05:04:45.986Z,98370.94
2019-01-10T05:07:16.414Z,98370.98
2019-01-10T05:09:46.572Z,98372.41
2019-01-10T05:12:16.767Z,98366.30
2019-01-10T05:14:47.018Z,98371.38
2019-01-10T05:17:18.174Z,98379.16
2019-01-10T05:19:48.366Z,98379.41
2019-01-10T05:22:18.535Z,98380.50
2019-01-10T05:24:48.759Z,98384.28
2019-01-10T05:27:19.072Z,98386.91
2019-01-10T05:29:49.340Z,98389.02
2019-01-10T05:32:19.491Z,98392.09
2019-01-10T05:34:49.729Z,98395.72
2019-01-10T05:37:19.992Z,98394.63
2019-01-10T05:39:50.136Z,98399.09
2019-01-10T05:42:20.236Z,98397.22
2019-01-10T05:44:50.381Z,98400.83
2019-01-10T05:47:20.734Z,98402.44
2019-01-10T05:49:51.072Z,98402.74
2019-01-10T05:52:21.697Z,98404.66
2019-01-10T05:54:51.875Z,98410.89
2019-01-10T05:57:22.309Z,98421.38
2019-01-10T05:59:52.496Z,98422.53
2019-01-10T06:02:22.719Z,98422.95
2019-01-10T06:04:52.869Z,98424.03
2019-01-10T06:07:23.109Z,98431.44
2019-01-10T06:09:53.236Z,98435.19
2019-01-10T06:12:23.495Z,98440.67
2019-01-10T06:14:53.719Z,98439.79
2019-01-10T06:17:23.853Z,98441.27
2019-01-10T06:19:54.034Z,98451.67
2019-01-10T06:22:24.265Z,98443.62
2019-01-10T06:24:54.451Z,98454.40
2019-01-10T06:27:24.666Z,98452.16
2019-01-10T06:29:54.879Z,98450.41
2019-01-10T06:32:25.046Z,98463.34
2019-01-10T06:34:55.120Z,98464.58
2019-01-10T06:37:25.355Z,98468.34
2019-01-10T06:39:55.551Z,98469.59
2019-01-10T06:42:25.821Z,98466.84
2019-01-10T06:44:56.190Z,98468.98
2019-01-10T06:47:26.961Z,98469.27
2019-01-10T06:49:57.405Z,98476.57
2019-01-10T06:52:27.561Z,98479.53
2019-01-10T06:54:57.740Z,98482.58
2019-01-10T06:57:27.966Z,98481.55
2019-01-10T06:59:58.071Z,98480.73
2019-01-10T07:02:28.387Z,98480.17
2019-01-10T07:04:58.486Z,98483.31
2019-01-10T07:07:28.808Z,98483.07
2019-01-10T07:09:58.940Z,98487.55
2019-01-10T07:12:29.124Z,98490.38
2019-01-10T07:14:59.512Z,98491.98
2019-01-10T07:17:29.756Z,98490.38
2019-01-10T07:20:01.259Z,98494.70
2019-01-10T07:22:31.820Z,98497.30
2019-01-10T07:25:02.897Z,98495.73
2019-01-10T07:27:33.137Z,98502.69
2019-01-10T07:30:03.356Z,98503.48
2019-01-10T07:32:33.811Z,98498.95
2019-01-10T07:35:12.434Z,98508.02
2019-01-10T07:37:45.420Z,98508.02
2019-01-10T07:40:17.111Z,98513.76
2019-01-10T07:42:47.712Z,98509.83
2019-01-10T07:45:20.208Z,98511.20
2019-01-10T07:47:51.280Z,98512.86
2019-01-10T07:50:33.902Z,98512.86
2019-01-10T07:53:07.112Z,98523.05
2019-01-10T07:55:38.332Z,98525.36
2019-01-10T07:58:08.937Z,98527.65
2019-01-10T08:00:39.207Z,98531.55
2019-01-10T08:03:09.733Z,98528.14
2019-01-10T08:05:40.202Z,98530.64
2019-01-10T08:08:10.686Z,98538.97
2019-01-10T08:10:41.043Z,98534.61
2019-01-10T08:13:11.235Z,98537.04
2019-01-10T08:15:41.427Z,98538.51
2019-01-10T08:18:11.615Z,98538.58
2019-01-10T08:20:42.379Z,98543.81
2019-01-10T08:23:12.877Z,98544.39
2019-01-10T08:25:43.087Z,98553.09
2019-01-10T08:28:13.337Z,98556.34
2019-01-10T08:30:43.611Z,98562.44
2019-01-10T08:33:14.230Z,98569.47
2019-01-10T08:35:44.496Z,98566.66
2019-01-10T08:38:14.650Z,98577.80
2019-01-10T08:40:44.917Z,98581.70
2019-01-10T08:43:15.392Z,98585.94
2019-01-10T08:45:45.535Z,98586.62
2019-01-10T08:48:15.661Z,98585.90
2019-01-10T08:50:46.000Z,98594.17
2019-01-10T08:53:16.170Z,98594.86
2019-01-10T08:55:46.482Z,98594.34
2019-01-10T08:58:16.726Z,98594.30
2019-01-10T09:00:46.895Z,98597.20
2019-01-10T09:03:17.160Z,98599.70
2019-01-10T09:05:47.321Z,98600.56
2019-01-10T09:08:17.476Z,98604.39
2019-01-10T09:10:47.720Z,98605.55
2019-01-10T09:13:17.997Z,98614.06
2019-01-10T09:15:48.440Z,98614.87
2019-01-10T09:18:18.928Z,98611.59
2019-01-10T09:20:49.332Z,98614.61
2019-01-10T09:23:19.470Z,98617.03
2019-01-10T09:25:49.711Z,98620.58
2019-01-10T09:28:19.871Z,98620.86
2019-01-10T09:30:49.987Z,98618.87
2019-01-10T09:33:20.291Z,98621.52
2019-01-10T09:35:50.602Z,98625.14
2019-01-10T09:38:20.786Z,98631.05
2019-01-10T09:40:51.011Z,98630.12
2019-01-10T09:43:21.281Z,98630.63
2019-01-10T09:45:51.450Z,98623.63
2019-01-10T09:48:21.830Z,98636.79
2019-01-10T09:50:51.966Z,98640.26
2019-01-10T09:53:23.670Z,98635.10
2019-01-10T09:55:53.956Z,98639.10
2019-01-10T09:58:24.254Z,98638.83
2019-01-10T10:00:54.377Z,98643.17
2019-01-10T10:03:24.707Z,98644.86
2019-01-10T10:05:54.897Z,98647.86
2019-01-10T10:08:25.105Z,98648.48
2019-01-10T10:10:55.351Z,98647.81
2019-01-10T10:13:25.536Z,98649.68
2019-01-10T10:15:55.703Z,98655.05
2019-01-10T10:18:26.018Z,98650.70
2019-01-10T10:20:56.638Z,98658.44
2019-01-10T10:23:30.777Z,98656.45
2019-01-10T10:26:01.073Z,98657.44
2019-01-10T10:28:31.340Z,98659.64
2019-01-10T10:31:01.518Z,98651.66
2019-01-10T10:33:31.856Z,98655.11
2019-01-10T10:36:02.239Z,98656.39
2019-01-10T10:38:32.471Z,98661.45
2019-01-10T10:41:02.605Z,98660.97
2019-01-10T10:43:33.263Z,98660.40
2019-01-10T10:46:03.660Z,98663.42
2019-01-10T10:48:34.072Z,98653.27
2019-01-10T10:51:04.182Z,98659.37
2019-01-10T10:53:34.518Z,98658.77
2019-01-10T10:56:04.875Z,98665.50
2019-01-10T10:58:35.550Z,98660.97
2019-01-10T11:01:05.997Z,98663.08
2019-01-10T11:03:36.377Z,98658.38
2019-01-10T11:06:07.033Z,98664.75
2019-01-10T11:08:37.228Z,98659.98
2019-01-10T11:11:07.763Z,98663.72
2019-01-10T11:13:38.164Z,98661.92
2019-01-10T11:16:10.711Z,98664.87
2019-01-10T11:18:40.502Z,98666.33
2019-01-10T11:21:10.983Z,98659.19
2019-01-10T11:23:41.394Z,98665.23
2019-01-10T11:26:11.742Z,98661.14
2019-01-10T11:28:44.062Z,98664.05
2019-01-10T11:31:14.191Z,98655.09
2019-01-10T11:33:44.374Z,98660.19
2019-01-10T11:36:14.752Z,98652.91
2019-01-10T11:38:47.486Z,98653.03
2019-01-10T11:41:18.335Z,98655.16
2019-01-10T11:43:48.828Z,98652.36
2019-01-10T11:46:20.046Z,98655.22
2019-01-10T11:48:50.486Z,98656.36
2019-01-10T11:51:20.810Z,98649.23
2019-01-10T11:53:51.018Z,98652.05
2019-01-10T11:56:21.599Z,98654.44
2019-01-10T11:58:52.114Z,98652.80
2019-01-10T12:01:22.408Z,98655.59
2019-01-10T12:03:52.782Z,98657.14
2019-01-10T12:06:22.958Z,98650.44
2019-01-10T12:08:53.487Z,98653.12
2019-01-10T12:11:23.892Z,98651.91
2019-01-10T12:13:54.171Z,98646.57
2019-01-10T12:16:28.628Z,98649.03
2019-01-10T12:18:59.427Z,98649.48
2019-01-10T12:21:28.762Z,98650.63
2019-01-10T12:23:59.088Z,98643.89
2019-01-10T12:26:29.396Z,98644.84
2019-01-10T12:28:59.868Z,98647.52
2019-01-10T12:31:30.482Z,98645.72
2019-01-10T12:34:00.808Z,98643.08
2019-01-10T12:36:31.128Z,98648.26
2019-01-10T12:39:05.228Z,98644.55
2019-01-10T12:41:35.505Z,98645.85
2019-01-10T12:44:06.479Z,98650.70
2019-01-10T12:46:37.995Z,98651.45
2019-01-10T12:49:08.460Z,98650.30
2019-01-10T12:51:38.843Z,98646.30
2019-01-10T12:54:09.761Z,98645.29
2019-01-10T12:56:40.192Z,98648.78
2019-01-10T12:59:10.637Z,98650.25
2019-01-10T13:01:40.894Z,98644.96
2019-01-10T13:04:11.153Z,98646.48
2019-01-10T13:06:41.446Z,98645.48
2019-01-10T13:09:11.663Z,98645.99
2019-01-10T13:11:42.060Z,98646.87
2019-01-10T13:14:12.963Z,98647.20
2019-01-10T13:16:47.095Z,98647.41
2019-01-10T13:19:15.263Z,98650.06
2019-01-10T13:21:45.478Z,98654.80
2019-01-10T13:24:15.668Z,98655.65
2019-01-10T13:26:45.827Z,98657.48
2019-01-10T13:29:17.683Z,98659.41
2019-01-10T13:31:48.029Z,98659.94
2019-01-10T13:34:18.142Z,98658.45
2019-01-10T13:36:48.520Z,98656.88
2019-01-10T13:39:18.689Z,98656.48
2019-01-10T13:41:48.982Z,98661.53
2019-01-10T13:44:19.600Z,98665.39
2019-01-10T13:46:55.794Z,98660.16
2019-01-10T13:49:26.353Z,98661.77
2019-01-10T13:51:56.583Z,98667.50
2019-01-10T13:54:27.176Z,98671.00
2019-01-10T13:56:57.589Z,98668.33
2019-01-10T13:59:27.998Z,98670.48
2019-01-10T14:01:58.199Z,98671.75
2019-01-10T14:04:28.472Z,98673.33
2019-01-10T14:06:58.666Z,98671.81
2019-01-10T14:09:29.051Z,98673.76
2019-01-10T14:11:59.186Z,98678.67
2019-01-10T14:14:29.443Z,98678.98
2019-01-10T14:17:01.781Z,98685.07
2019-01-10T14:19:32.301Z,98683.84
2019-01-10T14:22:02.797Z,98687.21
2019-01-10T14:24:33.028Z,98686.39
2019-01-10T14:27:03.341Z,98693.69
2019-01-10T14:29:34.025Z,98684.19
2019-01-10T14:32:04.636Z,98689.87
2019-01-10T14:34:34.949Z,98686.39
2019-01-10T14:37:05.760Z,98689.41
2019-01-10T14:39:36.270Z,98691.48
2019-01-10T14:42:06.431Z,98689.46
2019-01-10T14:44:36.867Z,98697.59
2019-01-10T14:47:08.526Z,98700.73
2019-01-10T14:49:38.799Z,98700.83
2019-01-10T14:52:09.095Z,98706.75
2019-01-10T14:54:39.255Z,98708.48
2019-01-10T14:57:09.691Z,98709.98
2019-01-10T14:59:40.369Z,98718.84
2019-01-10T15:02:10.800Z,98720.42
2019-01-10T15:04:41.089Z,98728.48
2019-01-10T15:07:11.631Z,98721.72
2019-01-10T15:09:42.162Z,98721.65
2019-01-10T15:12:12.570Z,98729.28
2019-01-10T15:14:42.974Z,98724.11
2019-01-10T15:17:13.989Z,98731.24
2019-01-10T15:19:44.300Z,98729.20
2019-01-10T15:22:14.581Z,98726.98
2019-01-10T15:24:45.386Z,98733.27
2019-01-10T15:27:15.745Z,98737.75
2019-01-10T15:29:45.870Z,98738.97
2019-01-10T15:32:16.287Z,98740.79
2019-01-10T15:34:46.899Z,98740.20
2019-01-10T15:37:17.468Z,98739.69
2019-01-10T15:39:47.822Z,98743.69
2019-01-10T15:42:18.563Z,98741.00
2019-01-10T15:44:48.894Z,98748.17
2019-01-10T15:47:19.898Z,98751.68
2019-01-10T15:49:50.370Z,98755.33
2019-01-10T15:52:20.662Z,98756.66
2019-01-10T15:54:50.957Z,98752.51
2019-01-10T15:57:21.283Z,98750.13
2019-01-10T15:59:52.104Z,98754.36
2019-01-10T16:02:23.515Z,98753.03
2019-01-10T16:04:54.098Z,98749.04
2019-01-10T16:07:24.600Z,98755.54
2019-01-10T16:09:54.834Z,98755.54
2019-01-10T16:12:25.182Z,98749.78
2019-01-10T16:14:55.442Z,98751.93
2019-01-10T16:17:25.993Z,98757.70
2019-01-10T16:19:56.640Z,98769.69
2019-01-10T16:22:27.044Z,98766.31
2019-01-10T16:24:57.373Z,98762.16
2019-01-10T16:27:28.235Z,98766.66
2019-01-10T16:29:58.608Z,98765.05
2019-01-10T16:32:29.116Z,98778.97
2019-01-10T16:34:59.608Z,98769.05
2019-01-10T16:37:30.069Z,98778.36
2019-01-10T16:40:02.468Z,98776.73
2019-01-10T16:42:32.427Z,98781.23
2019-01-10T16:45:02.742Z,98780.14
2019-01-10T16:47:33.262Z,98781.75
2019-01-10T16:50:04.564Z,98783.69
2019-01-10T16:52:35.183Z,98778.38
2019-01-10T16:55:06.262Z,98783.55
2019-01-10T16:57:36.687Z,98779.54
2019-01-10T17:00:11.394Z,98785.69
2019-01-10T17:02:41.728Z,98779.69
2019-01-10T17:05:12.046Z,98787.53
2019-01-10T17:07:42.374Z,98782.20
2019-01-10T17:10:13.483Z,98784.72
2019-01-10T17:12:43.738Z,98789.21
2019-01-10T17:15:14.705Z,98794.48
2019-01-10T17:17:46.326Z,98788.78
2019-01-10T17:20:19.150Z,98796.10
2019-01-10T17:22:49.746Z,98796.92
2019-01-10T17:25:20.971Z,98794.48
2019-01-10T17:27:51.259Z,98801.27
2019-01-10T17:30:32.150Z,98801.59
2019-01-10T17:33:03.360Z,98801.59
2019-01-10T17:35:34.448Z,98806.33
2019-01-10T17:38:06.489Z,98808.84
2019-01-10T17:40:37.069Z,98806.31
2019-01-10T17:43:08.405Z,98813.25
2019-01-10T17:45:41.580Z,98812.91
2019-01-10T17:48:12.393Z,98814.91
2019-01-10T17:50:42.803Z,98817.19
2019-01-10T17:53:13.041Z,98817.63
2019-01-10T17:55:43.255Z,98815.09
2019-01-10T17:58:13.471Z,98819.49
2019-01-10T18:00:44.094Z,98821.59
2019-01-10T18:03:14.537Z,98815.81
2019-01-10T18:05:44.915Z,98823.74
2019-01-10T18:08:15.335Z,98826.34
2019-01-10T18:10:45.975Z,98836.73
2019-01-10T18:13:16.265Z,98837.95
2019-01-10T18:15:46.735Z,98834.10
2019-01-10T18:18:17.145Z,98841.41
2019-01-10T18:20:48.229Z,98844.59
2019-01-10T18:23:18.731Z,98848.58
2019-01-10T18:25:49.418Z,98848.44
2019-01-10T18:28:19.717Z,98846.80
2019-01-10T18:30:50.039Z,98848.13
2019-01-10T18:33:20.350Z,98849.52
2019-01-10T18:35:51.002Z,98853.77
2019-01-10T18:38:21.444Z,98854.27
2019-01-10T18:40:52.106Z,98859.59
2019-01-10T18:43:22.726Z,98861.30
2019-01-10T18:45:53.505Z,98863.95
2019-01-10T18:48:23.985Z,98866.93
2019-01-10T18:50:54.478Z,98870.42
2019-01-10T18:53:25.054Z,98865.97
2019-01-10T18:55:55.465Z,98868.58
2019-01-10T18:58:26.509Z,98875.94
2019-01-10T19:00:57.638Z,98875.43
2019-01-10T19:03:28.308Z,98871.52
2019-01-10T19:05:58.680Z,98881.58
2019-01-10T19:08:29.168Z,98876.62
2019-01-10T19:11:00.778Z,98872.43
2019-01-10T19:13:31.228Z,98872.57
2019-01-10T19:16:01.829Z,98876.42
2019-01-10T19:18:32.384Z,98873.28
2019-01-10T19:21:03.254Z,98872.17
2019-01-10T19:23:33.818Z,98874.92
2019-01-10T19:26:04.413Z,98877.81
2019-01-10T19:28:35.056Z,98867.59
2019-01-10T19:31:05.298Z,98874.69
2019-01-10T19:33:36.047Z,98875.60
2019-01-10T19:36:06.909Z,98878.18
2019-01-10T19:38:37.533Z,98877.16
2019-01-10T19:41:08.056Z,98881.41
2019-01-10T19:43:38.408Z,98885.57
2019-01-10T19:46:09.451Z,98881.27
2019-01-10T19:48:39.787Z,98888.00
2019-01-10T19:51:10.320Z,98888.74
2019-01-10T19:53:41.009Z,98886.91
2019-01-10T19:56:11.677Z,98893.25
2019-01-10T19:58:44.232Z,98894.30
2019-01-10T20:01:15.005Z,98886.59
2019-01-10T20:03:45.565Z,98891.21
2019-01-10T20:06:16.240Z,98887.32
2019-01-10T20:08:46.959Z,98902.23
2019-01-10T20:11:17.299Z,98902.66
2019-01-10T20:13:47.798Z,98908.21
2019-01-10T20:16:18.755Z,98896.09
2019-01-10T20:18:49.759Z,98912.61
2019-01-10T20:21:20.494Z,98911.97
2019-01-10T20:23:50.956Z,98904.45
2019-01-10T20:26:21.412Z,98905.33
2019-01-10T20:28:51.770Z,98909.59
2019-01-10T20:31:22.321Z,98919.36
2019-01-10T20:33:52.710Z,98912.72
2019-01-10T20:36:23.213Z,98909.54
2019-01-10T20:38:53.550Z,98913.03
2019-01-10T20:41:24.136Z,98908.95
2019-01-10T20:43:54.747Z,98913.53
2019-01-10T20:46:26.509Z,98918.77
2019-01-10T20:48:57.055Z,98911.83
2019-01-10T20:51:27.472Z,98904.73
2019-01-10T20:53:58.149Z,98910.92
2019-01-10T20:56:28.836Z,98914.69
2019-01-10T20:58:59.489Z,98918.48
2019-01-10T21:01:29.956Z,98921.43
2019-01-10T21:04:00.281Z,98927.35
2019-01-10T21:06:30.927Z,98921.84
2019-01-10T21:09:01.397Z,98929.00
2019-01-10T21:11:32.549Z,98938.59
2019-01-10T21:14:03.161Z,98933.27
2019-01-10T21:16:36.540Z,98935.74
2019-01-10T21:19:07.295Z,98937.67
2019-01-10T21:21:37.994Z,98935.23
2019-01-10T21:24:08.589Z,98941.34
2019-01-10T21:26:39.004Z,98932.34
2019-01-10T21:29:09.480Z,98930.61
2019-01-10T21:31:40.256Z,98924.91
2019-01-10T21:34:10.518Z,98940.06
2019-01-10T21:36:41.265Z,98939.78
2019-01-10T21:39:11.677Z,98939.05
2019-01-10T21:41:42.049Z,98936.98
2019-01-10T21:44:12.335Z,98939.88
2019-01-10T21:46:42.593Z,98934.23
2019-01-10T21:49:13.246Z,98933.13
2019-01-10T21:51:43.659Z,98939.05
2019-01-10T21:54:14.219Z,98935.47
2019-01-10T21:56:47.948Z,98942.03
2019-01-10T21:59:18.340Z,98937.29
2019-01-10T22:01:49.016Z,98929.41
2019-01-10T22:04:20.511Z,98939.27
2019-01-10T22:06:51.260Z,98934.77
2019-01-10T22:09:21.810Z,98941.55
2019-01-10T22:11:52.624Z,98938.38
2019-01-10T22:14:23.297Z,98934.30
2019-01-10T22:16:53.587Z,98937.78
2019-01-10T22:19:24.557Z,98939.33
2019-01-10T22:21:54.921Z,98943.96
2019-01-10T22:24:25.049Z,98944.05
2019-01-10T22:26:55.313Z,98936.80
2019-01-10T22:29:25.608Z,98938.00
2019-01-10T22:31:56.210Z,98934.39
2019-01-10T22:34:26.540Z,98930.91
2019-01-10T22:36:56.849Z,98929.67
2019-01-10T22:39:27.124Z,98929.58
2019-01-10T22:41:57.442Z,98929.93
2019-01-10T22:44:28.191Z,98926.67
2019-01-10T22:46:58.680Z,98918.28
2019-01-10T22:49:29.130Z,98928.45
2019-01-10T22:51:59.506Z,98928.58
2019-01-10T22:54:29.845Z,98927.97
2019-01-10T22:57:00.417Z,98935.13
2019-01-10T22:59:30.730Z,98924.39
2019-01-10T23:02:01.009Z,98922.97
2019-01-10T23:04:37.076Z,98928.95
2019-01-10T23:07:33.324Z,98926.38
2019-01-10T23:10:05.450Z,98930.21
2019-01-10T23:12:36.510Z,98924.58
2019-01-10T23:15:35.014Z,98923.47
2019-01-10T23:18:06.432Z,98936.78
2019-01-10T23:20:37.201Z,98931.39
2019-01-10T23:23:11.007Z,98929.86
2019-01-10T23:25:41.229Z,98929.26
2019-01-10T23:28:12.031Z,98930.69
2019-01-10T23:30:53.812Z,98932.41
2019-01-10T23:33:25.722Z,98927.81
2019-01-10T23:36:02.226Z,98926.09
2019-01-10T23:38:32.452Z,98927.64
2019-01-10T23:41:02.737Z,98926.50
2019-01-10T23:43:32.996Z,98926.50
2019-01-10T23:46:03.256Z,98934.69
2019-01-10T23:48:33.894Z,98929.70
2019-01-10T23:51:04.099Z,98932.36
2019-01-10T23:53:34.339Z,98924.16
2019-01-10T23:56:04.777Z,98926.72
2019-01-10T23:58:35.035Z,98916.62
